Hauptseite
METAR-TAF:

METAR-TAF

Flughäfen :

Flughafen Treviso

Treviso, Italien

Breite: 45-39N, Länge: 012-11E, Höhe: 18 m

Beobachtung

Neuester Wetterbericht von vor 16 Minuten, um 01:50 UTC
Wind 3 kt aus Nordost, variierte zwischen Nord und Ost
Temperatur 20°C
Luftfeuchtigkeit 68%
Luftdruck 1018 hPa
Sichtweite 10 km oder mehr

METAR: LIPH 260150Z AUTO 04003KT 010V080 9999 BKN140/// 20/14 Q1018

Zeit: 04:06 (02:06 UTC)

Prognose

Neuester Wetterbericht von vor 3 Stunden und 6 Minuten, um 23:00 UTC
Gültige Prognose vom 26 um 00 UTC bis 26 um 24 UTC
Wind 5 kt aus unterschiedlichen Richtungen
Sichtweite 10 km oder mehr
keine Wolken unter 1500 m und keine Kumulonimbus oder Gewitterwolken

TAF: LIPH 252300Z 2600/2624 VRB05KT CAVOK

Wetterbeobachtungen und Prognosen von mehr als 4000 Flughäfen (METAR und TAF Bericht).

Die verfügbaren Stationen werden durch gelbe und rote Markierungen auf der Karte dargestellt.

Führen Sie die Maus auf sie, um den Namen der Station zu sehen.

Darauf klicken, um die Beobachtung von Wetterbeobachtungen und Prognosen zu sehen.

Um die Karte zu ändern : klicken Sie auf den grünen Tasten mit einem schwarzen Kreuz Zum Vergrößern, auf den grünen Button mit einem Gedankenstrich zu verkleinern, oder auf die grünen Pfeile für benachbarte Karten.


METAR-TAF: